createdAt,value
2019-02-23T00:00:29.945Z,15.05
2019-02-23T00:02:58.594Z,15.40
2019-02-23T00:05:27.225Z,13.45
2019-02-23T00:07:55.992Z,14.85
2019-02-23T00:10:24.611Z,14.10
2019-02-23T00:12:53.275Z,14.10
2019-02-23T00:15:21.915Z,14.87
2019-02-23T00:17:50.567Z,13.78
2019-02-23T00:20:19.214Z,14.30
2019-02-23T00:22:47.859Z,15.28
2019-02-23T00:25:16.532Z,13.78
2019-02-23T00:27:45.196Z,12.55
2019-02-23T00:30:13.901Z,15.40
2019-02-23T00:32:42.568Z,14.10
2019-02-23T00:35:11.391Z,13.98
2019-02-23T00:37:40.363Z,14.50
2019-02-23T00:40:09.096Z,13.93
2019-02-23T00:42:37.743Z,14.30
2019-02-23T00:45:06.411Z,13.85
2019-02-23T00:47:35.071Z,14.60
2019-02-23T00:50:03.825Z,13.22
2019-02-23T00:52:32.745Z,12.50
2019-02-23T00:55:01.376Z,12.95
2019-02-23T00:57:30.031Z,13.50
2019-02-23T00:59:58.663Z,13.25
2019-02-23T01:02:27.304Z,12.68
2019-02-23T01:04:55.980Z,13.75
2019-02-23T01:07:24.639Z,12.78
2019-02-23T01:09:53.287Z,13.05
2019-02-23T01:12:22.015Z,11.55
2019-02-23T01:14:50.642Z,12.85
2019-02-23T01:17:19.285Z,13.22
2019-02-23T01:19:48.220Z,12.15
2019-02-23T01:22:17.114Z,12.75
2019-02-23T01:24:45.812Z,10.05
2019-02-23T01:27:14.463Z,12.80
2019-02-23T01:30:02.361Z,12.73
2019-02-23T01:32:31.153Z,13.50
2019-02-23T01:35:00.294Z,13.05
2019-02-23T01:37:29.124Z,12.73
2019-02-23T01:39:57.759Z,12.63
2019-02-23T01:42:26.456Z,13.30
2019-02-23T01:44:55.144Z,13.05
2019-02-23T01:47:23.788Z,13.00
2019-02-23T01:49:58.899Z,13.70
2019-02-23T01:52:22.767Z,13.90
2019-02-23T01:54:51.452Z,13.93
2019-02-23T01:57:20.109Z,14.28
2019-02-23T01:59:48.772Z,13.32
2019-02-23T02:02:17.551Z,12.75
2019-02-23T02:04:46.195Z,14.63
2019-02-23T02:07:14.972Z,13.70
2019-02-23T02:09:43.879Z,14.60
2019-02-23T02:12:14.710Z,13.30
2019-02-23T02:14:43.400Z,13.90
2019-02-23T02:17:12.420Z,14.58
2019-02-23T02:19:41.381Z,13.80
2019-02-23T02:22:10.046Z,13.58
2019-02-23T02:24:38.684Z,14.65
2019-02-23T02:27:07.413Z,14.33
2019-02-23T02:29:36.062Z,14.93
2019-02-23T02:32:04.709Z,14.63
2019-02-23T02:34:33.383Z,13.80
2019-02-23T02:37:02.168Z,14.85
2019-02-23T02:39:31.115Z,14.93
2019-02-23T02:42:00.077Z,14.95
2019-02-23T02:44:28.691Z,14.75
2019-02-23T02:46:57.635Z,15.20
2019-02-23T02:49:26.299Z,14.98
2019-02-23T02:51:54.935Z,15.20
2019-02-23T02:54:23.582Z,15.35
2019-02-23T02:56:52.224Z,15.70
2019-02-23T02:59:20.868Z,16.75
2019-02-23T03:01:49.537Z,15.70
2019-02-23T03:04:18.187Z,15.78
2019-02-23T03:06:46.857Z,16.52
2019-02-23T03:09:15.489Z,16.93
2019-02-23T03:11:48.280Z,18.10
2019-02-23T03:14:16.857Z,17.57
2019-02-23T03:16:45.491Z,16.85
2019-02-23T03:19:14.690Z,16.35
2019-02-23T03:21:43.326Z,18.00
2019-02-23T03:24:13.179Z,17.30
2019-02-23T03:26:41.905Z,17.40
2019-02-23T03:29:10.680Z,16.60
2019-02-23T03:31:39.691Z,16.55
2019-02-23T03:34:08.330Z,17.70
2019-02-23T03:36:36.972Z,17.15
2019-02-23T03:39:05.900Z,16.10
2019-02-23T03:41:34.544Z,18.82
2019-02-23T03:44:03.304Z,17.07
2019-02-23T03:46:31.931Z,17.07
2019-02-23T03:49:00.616Z,15.45
2019-02-23T03:51:29.257Z,14.90
2019-02-23T03:53:57.890Z,16.05
2019-02-23T03:56:26.620Z,16.60
2019-02-23T03:58:55.272Z,15.68
2019-02-23T04:01:23.895Z,15.65
2019-02-23T04:03:52.547Z,15.93
2019-02-23T04:06:21.179Z,16.48
2019-02-23T04:08:49.839Z,16.75
2019-02-23T04:11:19.007Z,16.12
2019-02-23T04:13:47.663Z,16.45
2019-02-23T04:16:16.401Z,15.20
2019-02-23T04:18:45.102Z,15.95
2019-02-23T04:21:13.758Z,15.80
2019-02-23T04:23:42.533Z,16.55
2019-02-23T04:26:12.427Z,14.78
2019-02-23T04:28:41.121Z,14.85
2019-02-23T04:31:09.833Z,16.42
2019-02-23T04:33:38.485Z,16.55
2019-02-23T04:36:07.138Z,15.43
2019-02-23T04:38:36.388Z,15.15
2019-02-23T04:41:05.177Z,14.47
2019-02-23T04:43:34.786Z,14.90
2019-02-23T04:46:03.407Z,14.95
2019-02-23T04:48:32.107Z,14.68
2019-02-23T04:51:00.843Z,15.23
2019-02-23T04:53:29.899Z,15.03
2019-02-23T04:55:58.641Z,15.60
2019-02-23T04:58:27.319Z,15.25
2019-02-23T05:00:55.943Z,14.93
2019-02-23T05:03:24.611Z,16.20
2019-02-23T05:05:53.270Z,15.68
2019-02-23T05:08:21.923Z,15.13
2019-02-23T05:10:50.544Z,16.15
2019-02-23T05:13:19.224Z,16.07
2019-02-23T05:15:48.199Z,16.50
2019-02-23T05:18:16.841Z,16.25
2019-02-23T05:20:45.492Z,17.42
2019-02-23T05:23:14.132Z,16.65
2019-02-23T05:25:42.774Z,17.70
2019-02-23T05:28:11.424Z,16.42
2019-02-23T05:30:40.042Z,16.40
2019-02-23T05:33:08.720Z,18.42
2019-02-23T05:35:37.401Z,17.37
2019-02-23T05:38:06.599Z,17.42
2019-02-23T05:40:35.271Z,17.27
2019-02-23T05:43:04.106Z,15.68
2019-02-23T05:45:32.719Z,14.68
2019-02-23T05:48:01.397Z,17.98
2019-02-23T05:50:30.041Z,18.00
2019-02-23T05:52:58.952Z,17.62
2019-02-23T05:55:27.607Z,18.32
2019-02-23T05:57:56.283Z,20.75
2019-02-23T06:00:24.920Z,18.05
2019-02-23T06:02:53.562Z,20.02
2019-02-23T06:05:22.199Z,20.43
2019-02-23T06:07:50.843Z,19.37
2019-02-23T06:10:19.527Z,20.60
2019-02-23T06:12:48.472Z,17.57
2019-02-23T06:15:17.121Z,20.62
2019-02-23T06:17:45.730Z,17.40
2019-02-23T06:20:14.468Z,18.52
2019-02-23T06:22:43.100Z,18.90
2019-02-23T06:25:11.860Z,17.62
2019-02-23T06:27:40.571Z,17.15
2019-02-23T06:30:10.834Z,20.30
2019-02-23T06:32:39.492Z,19.82
2019-02-23T06:35:08.496Z,20.90
2019-02-23T06:37:37.179Z,19.62
2019-02-23T06:40:06.826Z,18.40
2019-02-23T06:42:35.575Z,21.23
2019-02-23T06:45:04.813Z,21.33
2019-02-23T06:47:33.447Z,21.20
2019-02-23T06:50:02.152Z,21.27
2019-02-23T06:52:30.820Z,20.35
2019-02-23T06:54:59.524Z,19.77
2019-02-23T06:57:28.202Z,17.15
2019-02-23T06:59:57.167Z,21.75
2019-02-23T07:02:25.821Z,22.52
2019-02-23T07:04:54.481Z,20.50
2019-02-23T07:07:23.194Z,21.68
2019-02-23T07:09:51.836Z,21.60
2019-02-23T07:12:20.450Z,21.65
2019-02-23T07:14:49.082Z,21.27
2019-02-23T07:17:18.071Z,21.02
2019-02-23T07:19:46.759Z,22.55
2019-02-23T07:22:16.035Z,21.95
2019-02-23T07:24:44.735Z,22.50
2019-02-23T07:27:13.351Z,23.65
2019-02-23T07:29:42.008Z,21.30
2019-02-23T07:32:10.670Z,23.98
2019-02-23T07:34:39.337Z,23.40
2019-02-23T07:37:07.959Z,22.95
2019-02-23T07:39:36.900Z,22.60
2019-02-23T07:42:05.535Z,23.12
2019-02-23T07:44:34.510Z,23.65
2019-02-23T07:47:03.156Z,23.15
2019-02-23T07:49:31.771Z,22.82
2019-02-23T07:52:00.673Z,22.60
2019-02-23T07:54:29.326Z,23.15
2019-02-23T07:56:57.951Z,24.45
2019-02-23T07:59:26.632Z,23.57
2019-02-23T08:01:55.263Z,22.15
2019-02-23T08:04:23.881Z,21.65
2019-02-23T08:06:52.543Z,20.05
2019-02-23T08:09:21.203Z,21.95
2019-02-23T08:11:49.923Z,21.90
2019-02-23T08:14:18.557Z,22.10
2019-02-23T08:16:47.292Z,21.20
2019-02-23T08:19:15.938Z,21.48
2019-02-23T08:21:44.837Z,21.17
2019-02-23T08:24:13.476Z,21.33
2019-02-23T08:26:42.126Z,23.25
2019-02-23T08:29:10.760Z,21.27
2019-02-23T08:31:39.430Z,22.20
2019-02-23T08:34:08.042Z,19.60
2019-02-23T08:36:36.689Z,20.62
2019-02-23T08:39:06.344Z,21.68
2019-02-23T08:41:35.011Z,19.10
2019-02-23T08:44:03.639Z,19.65
2019-02-23T08:46:32.316Z,18.85
2019-02-23T08:49:01.287Z,18.70
2019-02-23T08:51:29.961Z,18.23
2019-02-23T08:53:58.610Z,18.07
2019-02-23T08:56:27.231Z,18.10
2019-02-23T08:58:55.846Z,18.65
2019-02-23T09:01:24.512Z,19.37
2019-02-23T09:03:53.130Z,18.00
2019-02-23T09:06:21.779Z,18.45
2019-02-23T09:08:50.439Z,18.55
2019-02-23T09:11:19.077Z,17.52
2019-02-23T09:13:47.710Z,18.73
2019-02-23T09:16:16.397Z,19.57
2019-02-23T09:18:45.035Z,18.55
2019-02-23T09:21:13.688Z,18.98
2019-02-23T09:23:42.531Z,17.85
2019-02-23T09:26:11.219Z,19.92
2019-02-23T09:28:39.870Z,18.00
2019-02-23T09:31:08.564Z,19.82
2019-02-23T09:33:37.268Z,20.20
2019-02-23T09:36:05.925Z,19.70
2019-02-23T09:38:34.588Z,20.20
2019-02-23T09:41:03.259Z,19.42
2019-02-23T09:43:31.910Z,19.37
2019-02-23T09:46:00.549Z,19.17
2019-02-23T09:48:29.183Z,18.97
2019-02-23T09:50:57.840Z,19.77
2019-02-23T09:53:26.485Z,18.30
2019-02-23T09:55:55.207Z,18.75
2019-02-23T09:58:23.908Z,20.00
2019-02-23T10:00:52.574Z,20.27
2019-02-23T10:03:21.253Z,20.90
2019-02-23T10:05:49.934Z,20.03
2019-02-23T10:08:18.573Z,20.00
2019-02-23T10:10:47.219Z,21.40
2019-02-23T10:13:15.833Z,20.70
2019-02-23T10:15:44.483Z,19.00
2019-02-23T10:18:13.114Z,21.07
2019-02-23T10:20:41.883Z,19.73
2019-02-23T10:23:21.564Z,19.10
2019-02-23T10:25:41.695Z,19.97
2019-02-23T10:28:10.380Z,19.63
2019-02-23T10:30:39.017Z,20.27
2019-02-23T10:33:07.699Z,19.50
2019-02-23T10:35:36.487Z,20.23
2019-02-23T10:38:05.631Z,20.13
2019-02-23T10:40:34.316Z,19.17
2019-02-23T10:43:02.984Z,20.70
2019-02-23T10:45:31.619Z,18.70
2019-02-23T10:48:00.260Z,19.00
2019-02-23T10:50:28.952Z,20.47
2019-02-23T10:52:57.659Z,20.73
2019-02-23T10:55:26.291Z,20.47
2019-02-23T10:57:54.959Z,19.30
2019-02-23T11:00:23.827Z,20.00
2019-02-23T11:02:52.721Z,19.00
2019-02-23T11:05:21.408Z,18.37
2019-02-23T11:07:50.326Z,18.70
2019-02-23T11:10:20.119Z,18.80
2019-02-23T11:12:48.763Z,17.07
2019-02-23T11:15:18.296Z,18.07
2019-02-23T11:17:47.004Z,18.90
2019-02-23T11:20:16.618Z,17.70
2019-02-23T11:22:45.411Z,16.60
2019-02-23T11:25:14.251Z,17.27
2019-02-23T11:27:43.184Z,18.43
2019-02-23T11:30:12.126Z,16.20
2019-02-23T11:32:40.914Z,18.50
2019-02-23T11:35:09.973Z,17.07
2019-02-23T11:37:38.722Z,17.27
2019-02-23T11:40:08.771Z,17.40
2019-02-23T11:42:37.667Z,18.60
2019-02-23T11:45:06.608Z,16.43
2019-02-23T11:47:35.494Z,18.23
2019-02-23T11:50:04.459Z,16.93
2019-02-23T11:52:33.143Z,16.63
2019-02-23T11:55:01.856Z,16.33
2019-02-23T11:57:30.557Z,15.30
2019-02-23T11:59:59.340Z,15.40
2019-02-23T12:02:28.020Z,15.73
2019-02-23T12:04:56.635Z,15.43
2019-02-23T12:07:25.325Z,14.90
2019-02-23T12:09:54.253Z,14.83
2019-02-23T12:12:23.182Z,14.13
2019-02-23T12:14:52.118Z,13.50
2019-02-23T12:17:20.852Z,14.00
2019-02-23T12:19:49.588Z,14.10
2019-02-23T12:22:18.250Z,14.90
2019-02-23T12:24:47.116Z,13.40
2019-02-23T12:27:16.201Z,14.80
2019-02-23T12:29:44.912Z,15.87
2019-02-23T12:32:13.567Z,14.97
2019-02-23T12:34:42.240Z,15.03
2019-02-23T12:37:10.866Z,15.20
2019-02-23T12:39:39.504Z,15.40
2019-02-23T12:42:08.435Z,13.57
2019-02-23T12:44:37.091Z,13.70
2019-02-23T12:47:05.717Z,15.90
2019-02-23T12:49:34.387Z,13.20
2019-02-23T12:52:03.039Z,14.03
2019-02-23T12:54:31.747Z,14.90
2019-02-23T12:57:00.512Z,14.80
2019-02-23T12:59:29.200Z,14.87
2019-02-23T13:01:57.861Z,14.60
2019-02-23T13:04:26.571Z,14.33
2019-02-23T13:06:55.278Z,13.87
2019-02-23T13:09:26.397Z,13.90
2019-02-23T13:12:14.500Z,12.77
2019-02-23T13:15:12.051Z,12.87
2019-02-23T13:18:02.866Z,12.20
2019-02-23T13:21:06.612Z,11.83
2019-02-23T13:24:08.099Z,14.67
2019-02-23T13:26:59.464Z,15.50
2019-02-23T13:30:03.545Z,14.73
2019-02-23T13:33:03.780Z,16.13
2019-02-23T13:36:02.056Z,15.27
2019-02-23T13:38:53.187Z,15.57
2019-02-23T13:41:31.888Z,15.10
2019-02-23T13:44:32.187Z,16.10
2019-02-23T13:47:14.414Z,14.67
2019-02-23T13:50:06.965Z,16.00
2019-02-23T13:53:01.364Z,15.40
2019-02-23T13:56:03.011Z,16.40
2019-02-23T13:58:39.518Z,14.00
2019-02-23T14:01:32.713Z,14.40
2019-02-23T14:04:39.448Z,14.70
2019-02-23T14:07:23.617Z,14.90
2019-02-23T14:10:25.914Z,15.30
2019-02-23T14:13:13.723Z,14.00
2019-02-23T14:16:23.063Z,14.97
2019-02-23T14:19:26.004Z,15.90
2019-02-23T14:22:20.398Z,15.47
2019-02-23T14:25:16.027Z,16.00
2019-02-23T14:28:17.487Z,15.80
2019-02-23T14:31:07.988Z,15.00
2019-02-23T14:33:53.881Z,15.00
2019-02-23T14:36:32.175Z,13.83
2019-02-23T14:40:00.591Z,15.57
2019-02-23T14:42:55.972Z,14.73
2019-02-23T14:45:59.382Z,15.20
2019-02-23T14:48:58.070Z,15.07
2019-02-23T14:51:55.021Z,13.03
2019-02-23T14:54:49.159Z,14.10
2019-02-23T14:57:47.777Z,15.13
2019-02-23T15:00:44.227Z,13.07
2019-02-23T15:04:04.643Z,13.70
2019-02-23T15:06:55.123Z,12.50
2019-02-23T15:09:54.414Z,13.40
2019-02-23T15:12:29.461Z,13.40
2019-02-23T15:15:32.974Z,12.47
2019-02-23T15:18:16.063Z,10.77
2019-02-23T15:20:57.176Z,11.60
2019-02-23T15:24:17.867Z,11.03
2019-02-23T15:27:00.840Z,12.53
2019-02-23T15:29:42.318Z,12.20
2019-02-23T15:32:41.639Z,11.83
2019-02-23T15:35:36.131Z,10.97
2019-02-23T15:38:44.175Z,11.60
2019-02-23T15:42:09.827Z,11.93
2019-02-23T15:45:03.085Z,10.90
2019-02-23T15:48:07.603Z,10.13
2019-02-23T15:50:36.275Z,11.50
2019-02-23T15:53:05.282Z,11.70
2019-02-23T15:55:33.950Z,10.40
2019-02-23T15:58:02.604Z,10.07
2019-02-23T16:00:31.327Z,10.40
2019-02-23T16:02:59.979Z,9.97
2019-02-23T16:05:28.802Z,10.40
2019-02-23T16:07:57.558Z,9.20
2019-02-23T16:10:26.200Z,9.77
2019-02-23T16:12:54.856Z,10.33
2019-02-23T16:15:23.492Z,9.73
2019-02-23T16:17:52.168Z,10.93
2019-02-23T16:20:20.853Z,12.30
2019-02-23T16:22:49.599Z,13.43
2019-02-23T16:25:18.309Z,13.63
2019-02-23T16:27:46.965Z,14.10
2019-02-23T16:30:15.635Z,14.17
2019-02-23T16:32:45.339Z,14.83
2019-02-23T16:35:14.235Z,16.20
2019-02-23T16:37:42.880Z,16.73
2019-02-23T16:40:11.543Z,16.23
2019-02-23T16:42:40.652Z,17.30
2019-02-23T16:45:09.419Z,18.47
2019-02-23T16:47:38.332Z,17.70
2019-02-23T16:50:07.096Z,15.43
2019-02-23T16:52:35.901Z,15.83
2019-02-23T16:55:04.775Z,17.37
2019-02-23T16:57:33.556Z,16.50
2019-02-23T17:00:02.311Z,17.63
2019-02-23T17:02:31.333Z,18.93
2019-02-23T17:04:59.983Z,19.07
2019-02-23T17:07:28.624Z,19.40
2019-02-23T17:09:57.251Z,20.63
2019-02-23T17:12:25.963Z,19.07
2019-02-23T17:14:54.612Z,20.67
2019-02-23T17:17:23.416Z,21.97
2019-02-23T17:19:52.422Z,22.80
2019-02-23T17:22:21.266Z,21.83
2019-02-23T17:24:50.011Z,20.93
2019-02-23T17:27:18.768Z,21.60
2019-02-23T17:29:47.502Z,21.77
2019-02-23T17:32:16.295Z,23.13
2019-02-23T17:34:44.992Z,22.43
2019-02-23T17:37:13.765Z,22.97
2019-02-23T17:39:42.516Z,21.40
2019-02-23T17:42:11.621Z,21.87
2019-02-23T17:44:40.245Z,21.70
2019-02-23T17:47:08.932Z,20.23
2019-02-23T17:49:37.841Z,20.50
2019-02-23T17:52:06.773Z,21.87
2019-02-23T17:54:35.412Z,21.03
2019-02-23T17:57:04.069Z,20.67
2019-02-23T17:59:32.739Z,19.93
2019-02-23T18:02:01.671Z,20.43
2019-02-23T18:04:30.459Z,20.37
2019-02-23T18:06:59.184Z,20.53
2019-02-23T18:09:27.912Z,20.70
2019-02-23T18:11:56.554Z,20.00
2019-02-23T18:14:25.754Z,19.57
2019-02-23T18:16:54.425Z,21.30
2019-02-23T18:19:23.087Z,21.10
2019-02-23T18:21:51.781Z,24.30
2019-02-23T18:24:20.440Z,21.00
2019-02-23T18:26:49.078Z,21.40
2019-02-23T18:29:17.823Z,20.03
2019-02-23T18:31:46.557Z,21.37
2019-02-23T18:34:15.255Z,20.70
2019-02-23T18:36:43.943Z,19.20
2019-02-23T18:39:12.683Z,21.67
2019-02-23T18:41:41.303Z,20.27
2019-02-23T18:44:09.964Z,20.00
2019-02-23T18:46:38.631Z,21.13
2019-02-23T18:49:07.371Z,20.20
2019-02-23T18:51:36.756Z,20.67
2019-02-23T18:54:05.456Z,19.97
2019-02-23T18:56:34.104Z,21.17
2019-02-23T18:59:02.824Z,21.57
2019-02-23T19:01:31.474Z,19.60
2019-02-23T19:04:00.143Z,19.90
2019-02-23T19:06:28.840Z,20.70
2019-02-23T19:08:57.549Z,21.20
2019-02-23T19:11:26.223Z,21.97
2019-02-23T19:13:54.867Z,19.50
2019-02-23T19:16:23.883Z,20.27
2019-02-23T19:18:52.577Z,19.53
2019-02-23T19:21:21.340Z,18.97
2019-02-23T19:23:50.270Z,21.87
2019-02-23T19:26:18.963Z,21.20
2019-02-23T19:28:47.638Z,20.30
2019-02-23T19:31:16.268Z,19.47
2019-02-23T19:33:45.041Z,19.50
2019-02-23T19:36:13.696Z,20.40
2019-02-23T19:38:42.507Z,21.13
2019-02-23T19:41:11.139Z,21.20
2019-02-23T19:43:39.838Z,19.40
2019-02-23T19:46:09.515Z,21.17
2019-02-23T19:48:38.396Z,20.87
2019-02-23T19:51:08.884Z,19.33
2019-02-23T19:53:38.083Z,21.37
2019-02-23T19:56:06.727Z,20.87
2019-02-23T19:58:35.395Z,21.67
2019-02-23T20:01:04.051Z,20.10
2019-02-23T20:03:32.766Z,21.33
2019-02-23T20:06:01.507Z,20.80
2019-02-23T20:08:30.151Z,19.97
2019-02-23T20:10:58.866Z,22.10
2019-02-23T20:13:27.738Z,22.13
2019-02-23T20:15:56.419Z,22.23
2019-02-23T20:18:25.139Z,21.60
2019-02-23T20:20:53.867Z,23.70
2019-02-23T20:23:22.567Z,23.60
2019-02-23T20:25:51.260Z,20.77
2019-02-23T20:28:19.999Z,22.87
2019-02-23T20:30:48.780Z,22.33
2019-02-23T20:33:19.057Z,22.17
2019-02-23T20:35:47.863Z,21.90
2019-02-23T20:38:16.880Z,23.70
2019-02-23T20:40:45.594Z,22.30
2019-02-23T20:43:14.219Z,23.47
2019-02-23T20:45:42.880Z,23.27
2019-02-23T20:48:11.594Z,22.50
2019-02-23T20:50:40.365Z,23.37
2019-02-23T20:53:09.615Z,23.17
2019-02-23T20:55:38.305Z,21.93
2019-02-23T20:58:07.023Z,23.47
2019-02-23T21:00:35.754Z,23.23
2019-02-23T21:03:04.386Z,23.80
2019-02-23T21:05:33.149Z,23.27
2019-02-23T21:08:01.779Z,22.58
2019-02-23T21:10:30.419Z,23.53
2019-02-23T21:12:59.390Z,22.93
2019-02-23T21:15:28.035Z,24.30
2019-02-23T21:17:57.166Z,23.98
2019-02-23T21:20:26.565Z,23.98
2019-02-23T21:22:55.991Z,24.18
2019-02-23T21:25:25.242Z,23.47
2019-02-23T21:27:53.942Z,24.70
2019-02-23T21:30:23.517Z,23.45
2019-02-23T21:32:52.174Z,24.23
2019-02-23T21:35:20.863Z,25.57
2019-02-23T21:37:49.491Z,26.03
2019-02-23T21:40:18.496Z,25.95
2019-02-23T21:42:47.129Z,25.57
2019-02-23T21:45:17.171Z,25.68
2019-02-23T21:47:45.845Z,25.85
2019-02-23T21:50:14.581Z,25.50
2019-02-23T21:52:43.543Z,26.42
2019-02-23T21:55:12.307Z,25.72
2019-02-23T21:57:41.012Z,25.60
2019-02-23T22:00:09.931Z,25.85
2019-02-23T22:02:38.781Z,24.77
2019-02-23T22:05:12.469Z,26.25
2019-02-23T22:07:37.936Z,25.43
2019-02-23T22:10:06.788Z,24.15
2019-02-23T22:12:35.872Z,24.07
2019-02-23T22:15:05.020Z,24.45
2019-02-23T22:17:33.761Z,23.52
2019-02-23T22:20:02.539Z,23.15
2019-02-23T22:22:31.192Z,24.65
2019-02-23T22:24:59.892Z,25.45
2019-02-23T22:27:31.354Z,25.17
2019-02-23T22:29:59.099Z,24.65
2019-02-23T22:32:27.832Z,24.37
2019-02-23T22:34:56.557Z,27.02
2019-02-23T22:37:25.200Z,26.30
2019-02-23T22:39:53.853Z,26.05
2019-02-23T22:42:22.580Z,25.10
2019-02-23T22:44:51.294Z,25.70
2019-02-23T22:47:19.928Z,25.10
2019-02-23T22:49:48.753Z,24.80
2019-02-23T22:52:17.591Z,25.52
2019-02-23T22:54:46.222Z,26.97
2019-02-23T22:57:14.944Z,25.48
2019-02-23T22:59:43.596Z,24.02
2019-02-23T23:02:12.360Z,22.73
2019-02-23T23:04:41.096Z,25.43
2019-02-23T23:07:09.801Z,26.40
2019-02-23T23:09:38.699Z,26.17
2019-02-23T23:12:07.541Z,25.20
2019-02-23T23:14:36.461Z,25.48
2019-02-23T23:17:05.209Z,23.50
2019-02-23T23:19:34.106Z,23.55
2019-02-23T23:22:02.764Z,24.25
2019-02-23T23:24:31.487Z,25.43
2019-02-23T23:27:00.260Z,26.05
2019-02-23T23:29:31.975Z,24.45
2019-02-23T23:32:00.651Z,25.00
2019-02-23T23:34:29.635Z,23.75
2019-02-23T23:36:58.361Z,22.45
2019-02-23T23:39:27.267Z,22.73
2019-02-23T23:41:55.905Z,23.30
2019-02-23T23:44:24.627Z,24.63
2019-02-23T23:46:54.015Z,23.30
2019-02-23T23:49:22.788Z,23.10
2019-02-23T23:51:51.488Z,23.73
2019-02-23T23:54:20.133Z,25.20
2019-02-23T23:56:48.891Z,23.38
2019-02-23T23:59:17.552Z,24.35
